createdAt,value
2024-01-16T00:02:05.522Z,97051.44
2024-01-16T00:07:30.542Z,97035.53
2024-01-16T00:12:58.462Z,97046.13
2024-01-16T00:18:29.581Z,97062.28
2024-01-16T00:23:54.477Z,97059.91
2024-01-16T00:29:21.617Z,97065.28
2024-01-16T00:34:46.477Z,97062.03
2024-01-16T00:40:12.478Z,97075.25
2024-01-16T00:45:41.468Z,97068.88
2024-01-16T00:51:05.460Z,97071.59
2024-01-16T00:56:40.559Z,97070.22
2024-01-16T01:02:17.524Z,97077.78
2024-01-16T01:07:42.490Z,97088.97
2024-01-16T01:13:06.497Z,97079.47
2024-01-16T01:18:34.522Z,97104.00
2024-01-16T01:23:58.483Z,97095.97
2024-01-16T01:29:24.530Z,97103.63
2024-01-16T01:34:51.481Z,97102.66
2024-01-16T01:40:20.490Z,97133.47
2024-01-16T01:45:44.481Z,97117.47
2024-01-16T01:51:12.463Z,97122.63
2024-01-16T01:56:38.512Z,97151.78
2024-01-16T02:02:10.552Z,97159.00
2024-01-16T02:07:39.509Z,97180.91
2024-01-16T02:13:03.502Z,97176.34
2024-01-16T02:18:28.508Z,97186.22
2024-01-16T02:23:55.543Z,97187.91
2024-01-16T02:29:21.497Z,97203.53
2024-01-16T02:34:46.508Z,97202.69
2024-01-16T02:40:15.505Z,97201.97
2024-01-16T02:45:40.490Z,97203.78
2024-01-16T02:51:05.520Z,97218.72
2024-01-16T02:56:32.562Z,97231.13
2024-01-16T03:01:58.293Z,97232.22
2024-01-16T03:07:22.520Z,97230.06
2024-01-16T03:12:50.520Z,97247.44
2024-01-16T03:18:14.778Z,97256.00
2024-01-16T03:23:39.617Z,97262.16
2024-01-16T03:29:06.655Z,97254.94
2024-01-16T03:34:31.535Z,97269.81
2024-01-16T03:39:55.633Z,97297.03
2024-01-16T03:45:23.561Z,97275.97
2024-01-16T03:50:51.583Z,97267.56
2024-01-16T03:56:16.621Z,97294.91
2024-01-16T04:01:53.611Z,97303.97
2024-01-16T04:07:18.536Z,97298.91
2024-01-16T04:12:42.558Z,97309.16
2024-01-16T04:18:10.642Z,97312.25
2024-01-16T04:23:34.809Z,97318.03
2024-01-16T04:28:59.568Z,97334.84
2024-01-16T04:34:26.628Z,97334.13
2024-01-16T04:39:51.549Z,97340.97
2024-01-16T04:45:15.550Z,97344.25
2024-01-16T04:50:43.600Z,97343.63
2024-01-16T04:56:08.678Z,97350.50
2024-01-16T05:01:39.593Z,97351.66
2024-01-16T05:07:07.572Z,97339.16
2024-01-16T05:12:32.568Z,97366.44
2024-01-16T05:17:57.712Z,97357.16
2024-01-16T05:23:25.610Z,97354.25
2024-01-16T05:28:50.563Z,97339.81
2024-01-16T05:34:14.670Z,97361.94
2024-01-16T05:39:42.553Z,97353.50
2024-01-16T05:45:06.605Z,97379.56
2024-01-16T05:50:31.683Z,97386.34
2024-01-16T05:55:58.592Z,97390.28
2024-01-16T06:01:29.581Z,97389.75
2024-01-16T06:06:55.794Z,97389.28
2024-01-16T06:12:23.593Z,97378.84
2024-01-16T06:17:48.608Z,97372.94
2024-01-16T06:23:12.608Z,97394.47
2024-01-16T06:28:40.607Z,97389.06
2024-01-16T06:34:04.671Z,97390.03
2024-01-16T06:39:29.597Z,97397.81
2024-01-16T06:44:56.660Z,97408.59
2024-01-16T06:50:21.801Z,97414.75
2024-01-16T06:55:46.593Z,97421.25
2024-01-16T07:01:21.639Z,97433.53
2024-01-16T07:06:57.088Z,97442.00
2024-01-16T07:12:21.613Z,97436.34
2024-01-16T07:17:49.776Z,97443.31
2024-01-16T07:23:14.593Z,97442.69
2024-01-16T07:28:41.607Z,97456.13
2024-01-16T07:34:08.693Z,97446.72
2024-01-16T07:39:33.606Z,97460.72
2024-01-16T07:44:57.636Z,97465.88
2024-01-16T07:50:25.625Z,97464.94
2024-01-16T07:55:49.605Z,97476.84
2024-01-16T08:01:20.648Z,97471.69
2024-01-16T08:06:48.789Z,97476.13
2024-01-16T08:12:13.639Z,97470.09
2024-01-16T08:17:38.885Z,97470.75
2024-01-16T08:23:05.695Z,97473.78
2024-01-16T08:28:33.649Z,97475.53
2024-01-16T08:33:57.869Z,97466.31
2024-01-16T08:39:27.654Z,97474.75
2024-01-16T08:44:51.729Z,97472.72
2024-01-16T08:50:18.724Z,97471.53
2024-01-16T08:55:45.654Z,97474.59
2024-01-16T09:01:10.694Z,97486.16
2024-01-16T09:06:35.778Z,97489.00
2024-01-16T09:12:05.683Z,97491.69
2024-01-16T09:17:33.797Z,97489.28
2024-01-16T09:22:58.719Z,97499.19
2024-01-16T09:28:26.698Z,97502.59
2024-01-16T09:39:13.156Z,97494.69
2024-01-16T09:44:41.769Z,97489.41
2024-01-16T09:50:06.696Z,97500.03
2024-01-16T09:55:31.674Z,97506.06
2024-01-16T10:00:59.722Z,97503.66
2024-01-16T10:06:28.769Z,97520.50
2024-01-16T10:11:53.772Z,97507.75
2024-01-16T10:17:23.767Z,97522.56
2024-01-16T10:22:53.684Z,97522.91
2024-01-16T10:28:21.040Z,97522.44
2024-01-16T10:33:50.923Z,97510.16
2024-01-16T10:39:16.692Z,97509.06
2024-01-16T10:44:47.711Z,97503.75
2024-01-16T10:50:16.776Z,97509.66
2024-01-16T10:55:44.700Z,97508.47
2024-01-16T11:01:16.800Z,97504.72
2024-01-16T11:06:44.725Z,97508.91
2024-01-16T11:12:10.735Z,97505.91
2024-01-16T11:17:35.803Z,97500.47
2024-01-16T11:23:07.689Z,97501.22
2024-01-16T11:28:31.681Z,97495.53
2024-01-16T11:34:05.317Z,97498.78
2024-01-16T11:39:34.739Z,97502.88
2024-01-16T11:45:02.810Z,97507.81
2024-01-16T11:50:39.748Z,97491.66
2024-01-16T11:56:40.935Z,97495.34
2024-01-16T12:02:10.730Z,97491.72
2024-01-16T12:07:34.748Z,97489.91
2024-01-16T12:13:09.731Z,97473.13
2024-01-16T12:18:42.612Z,97472.31
2024-01-16T12:24:14.655Z,97461.81
2024-01-16T12:29:44.756Z,97465.91
2024-01-16T12:35:09.810Z,97451.88
2024-01-16T12:40:33.750Z,97456.44
2024-01-16T12:46:05.750Z,97458.03
2024-01-16T12:51:37.732Z,97460.69
2024-01-16T13:02:38.786Z,97458.78
2024-01-16T13:08:27.783Z,97460.13
2024-01-16T13:13:52.734Z,97469.31
2024-01-16T13:19:21.083Z,97470.53
2024-01-16T13:24:54.758Z,97469.09
2024-01-16T13:30:36.582Z,97453.53
2024-01-16T13:36:12.751Z,97448.25
2024-01-16T13:41:41.860Z,97446.59
2024-01-16T13:47:09.049Z,97434.97
2024-01-16T13:52:39.776Z,97437.53
2024-01-16T13:58:05.817Z,97430.53
2024-01-16T14:03:30.824Z,97430.66
2024-01-16T14:08:58.768Z,97434.28
2024-01-16T14:14:24.801Z,97422.38
2024-01-16T14:19:52.740Z,97417.56
2024-01-16T14:25:22.765Z,97410.81
2024-01-16T14:30:49.792Z,97413.72
2024-01-16T14:36:16.800Z,97413.97
2024-01-16T14:41:43.808Z,97426.50
2024-01-16T14:47:08.790Z,97423.41
2024-01-16T14:52:33.798Z,97429.78
2024-01-16T14:58:07.806Z,97427.63
2024-01-16T15:03:32.819Z,97434.03
2024-01-16T15:08:59.871Z,97419.56
2024-01-16T15:14:27.817Z,97423.19
2024-01-16T15:19:54.920Z,97428.75
2024-01-16T15:25:29.807Z,97429.22
2024-01-16T15:31:13.856Z,97431.41
2024-01-16T15:36:42.827Z,97420.19
2024-01-16T15:42:07.849Z,97414.28
2024-01-16T15:47:31.931Z,97415.63
2024-01-16T15:58:20.808Z,97419.25
2024-01-16T16:03:45.845Z,97422.38
2024-01-16T16:09:14.803Z,97431.66
2024-01-16T16:14:40.841Z,97427.78
2024-01-16T16:20:04.801Z,97436.94
2024-01-16T16:25:32.813Z,97448.84
2024-01-16T16:30:56.990Z,97457.38
2024-01-16T16:36:21.805Z,97461.31
2024-01-16T16:41:49.846Z,97463.59
2024-01-16T16:47:22.877Z,97462.59
2024-01-16T16:52:47.841Z,97464.00
2024-01-16T16:58:16.825Z,97471.69
2024-01-16T17:03:41.872Z,97468.78
2024-01-16T17:09:06.806Z,97475.72
2024-01-16T17:14:34.893Z,97462.84
2024-01-16T17:19:59.870Z,97447.41
2024-01-16T17:25:24.860Z,97446.78
2024-01-16T17:30:54.155Z,97455.06
2024-01-16T17:36:20.862Z,97458.88
2024-01-16T17:41:47.160Z,97458.47
2024-01-16T17:47:21.916Z,97472.50
2024-01-16T17:52:46.854Z,97484.34
2024-01-16T17:58:10.844Z,97478.00
2024-01-16T18:03:43.189Z,97467.38
2024-01-16T18:09:16.870Z,97463.28
2024-01-16T18:14:41.941Z,97457.47
2024-01-16T18:20:10.703Z,97459.69
2024-01-16T18:25:35.868Z,97465.50
2024-01-16T18:31:00.079Z,97464.38
2024-01-16T18:36:27.897Z,97463.03
2024-01-16T18:41:52.985Z,97458.06
2024-01-16T18:47:23.879Z,97462.94
2024-01-16T18:52:52.929Z,97463.44
2024-01-16T18:58:17.920Z,97455.13
2024-01-16T19:03:43.946Z,97457.22
2024-01-16T19:09:13.014Z,97454.06
2024-01-16T19:14:39.270Z,97447.72
2024-01-16T19:20:11.875Z,97445.81
2024-01-16T19:31:02.422Z,97443.28
2024-01-16T19:42:26.637Z,97435.47
2024-01-16T19:47:53.052Z,97431.63
2024-01-16T19:59:57.019Z,97448.28
2024-01-16T20:05:32.016Z,97452.72
2024-01-16T20:11:03.882Z,97450.16
2024-01-16T20:16:34.291Z,97444.16
2024-01-16T20:22:02.915Z,97428.44
2024-01-16T20:27:27.944Z,97429.50
2024-01-16T20:32:57.043Z,97415.69
2024-01-16T20:38:23.125Z,97415.88
2024-01-16T20:43:47.886Z,97416.00
2024-01-16T20:49:25.069Z,97414.19
2024-01-16T20:54:50.917Z,97407.13
2024-01-16T21:00:18.962Z,97397.22
2024-01-16T21:05:47.109Z,97400.38
2024-01-16T21:11:10.926Z,97403.97
2024-01-16T21:16:36.892Z,97399.56
2024-01-16T21:22:04.929Z,97391.00
2024-01-16T21:27:30.917Z,97401.00
2024-01-16T21:32:55.080Z,97404.59
2024-01-16T21:38:23.971Z,97391.09
2024-01-16T21:43:47.924Z,97386.94
2024-01-16T21:49:18.984Z,97382.75
2024-01-16T21:54:46.921Z,97364.69
2024-01-16T22:00:11.923Z,97362.16
2024-01-16T22:05:37.033Z,97341.09
2024-01-16T22:11:03.949Z,97337.63
2024-01-16T22:16:34.953Z,97320.22
2024-01-16T22:21:59.940Z,97316.00
2024-01-16T22:27:26.982Z,97317.06
2024-01-16T22:32:52.064Z,97309.91
2024-01-16T22:38:15.933Z,97301.88
2024-01-16T22:43:43.949Z,97291.34
2024-01-16T22:49:15.019Z,97289.84
2024-01-16T22:54:39.976Z,97294.50
2024-01-16T23:00:07.023Z,97301.88
2024-01-16T23:05:31.997Z,97288.16
2024-01-16T23:10:56.964Z,97286.47
2024-01-16T23:16:24.989Z,97269.47
2024-01-16T23:21:49.974Z,97253.16
2024-01-16T23:27:18.949Z,97244.84
2024-01-16T23:32:46.044Z,97238.19
2024-01-16T23:38:10.992Z,97229.22
2024-01-16T23:43:40.955Z,97220.97
2024-01-16T23:49:15.030Z,97215.16
2024-01-16T23:54:40.958Z,97211.16
